• Join FlightAware (Why Join?)
  • Login
  • US Flag 
02:48AM EDT


 

Airport Tracker/Info


-or-


 

Live Flight TrackerFlight Track Log ✈ SWA1096 ✈ 24-Apr-2013 ✈ KSLC - KBWI

Flight Track Log - Related Links

Times and Time Zones

All times are in EDT time to prevent confusion due to time zone crossing. See the SWA1096 flight status page for this flight to view local times or setup timezone preferences in your user account.

Time Position Orientation Groundspeed Altitude Reporting Facility
EDT Latitude Longitude Course Direction KTS MPH feet Rate Location/Type
11:06AM 40.8119 -111.9633 354° North 175 201 5,300  Level Salt Lake Center
11:07AM 40.8631 -111.9708 354° North 203 234 7,200 2,220 Climbing Salt Lake Center
11:09AM 40.9492 -111.9822 354° North 264 304 10,100 2,640 Climbing Salt Lake Center
11:10AM 41.0092 -111.9322 32° Northeast 297 342 12,700 2,460 Climbing Salt Lake Center
11:11AM 41.0183 -111.8164 84° East 342 394 15,300 2,580 Climbing Salt Lake Center
11:12AM 41.0392 -111.6950 77° East 347 399 18,100 2,820 Climbing Salt Lake Center
11:13AM 41.0728 -111.5400 74° East 368 423 21,200 2,700 Climbing Salt Lake Center
11:14AM 41.1022 -111.4044 74° East 383 441 23,800 2,340 Climbing Salt Lake Center
11:15AM 41.1314 -111.2678 74° East 387 445 26,100 1,980 Climbing Salt Lake Center
11:16AM 41.1608 -111.1261 75° East 398 458 27,900 1,620 Climbing Salt Lake Center
11:17AM 41.1928 -110.9781 74° East 414 476 29,500 1,500 Climbing Salt Lake Center
11:18AM 41.2292 -110.8050 74° East 433 498 31,000 1,500 Climbing Salt Lake Center
11:19AM 41.2603 -110.6547 75° East 441 507 32,600 1,200 Climbing Salt Lake Center
11:20AM 41.2989 -110.4761 74° East 448 516 33,600 960 Climbing Salt Lake Center
11:21AM 41.3311 -110.3156 75° East 465 535 34,600 960 Climbing Salt Lake Center
11:22AM 41.3694 -110.1250 75° East 478 550 35,700 960 Climbing Salt Lake Center
11:23AM 41.4028 -109.9608 75° East 480 552 36,600 600 Climbing Salt Lake Center
11:24AM 41.4419 -109.7689 75° East 480 552 37,000 180 Climbing Salt Lake Center
11:25AM 41.4750 -109.6028 75° East 483 556 37,000  Level Salt Lake Center
11:26AM 41.5142 -109.4100 75° East 481 554 37,000  Level Salt Lake Center
11:27AM 41.5461 -109.2422 76° East 480 552 37,000  Level Salt Lake Center
11:28AM 41.5781 -109.0750 76° East 476 548 37,000  Level Salt Lake Center
11:29AM 41.6006 -108.8772 81° East 479 551 37,000  Level Salt Lake Center
11:30AM 41.6144 -108.7064 84° East 481 554 37,000  Level Salt Lake Center
11:31AM 41.6292 -108.5097 84° East 477 549 37,000  Level Salt Lake Center
11:32AM 41.6414 -108.3394 84° East 479 551 37,000  Level Salt Lake Center
11:33AM 41.6553 -108.1394 85° East 484 557 37,000  Level Salt Lake Center
11:34AM 41.6617 -108.0525 84° East 482 555 37,000  Level Denver Center
11:35AM 41.6739 -107.8814 84° East 484 557 37,000  Level Denver Center
11:36AM 41.6881 -107.6808 85° East 485 558 37,000  Level Denver Center
11:37AM 41.6981 -107.5086 85° East 486 559 37,000  Level Denver Center
11:38AM 41.7119 -107.3092 85° East 483 556 37,000  Level Denver Center
11:39AM 41.7244 -107.1364 84° East 487 560 37,000  Level Denver Center
11:40AM 41.7356 -106.9342 86° East 490 564 37,000  Level Denver Center
11:41AM 41.7469 -106.7603 85° East 490 564 37,000  Level Denver Center
11:42AM 41.7586 -106.5575 86° East 491 565 37,000  Level Denver Center
11:43AM 41.7681 -106.3875 86° East 493 567 37,000  Level Denver Center
11:44AM 41.7792 -106.1831 86° East 494 568 37,000  Level Denver Center
11:45AM 41.7903 -106.0089 85° East 492 566 37,000  Level Denver Center
11:46AM 41.8003 -105.8011 86° East 501 577 37,000  Level Denver Center
11:47AM 41.8081 -105.6239 87° East 501 577 37,000 60 Level Denver Center
11:48AM 41.8181 -105.4169 86° East 500 575 37,200 360 Climbing Denver Center
11:50AM 41.8264 -105.2319 86° East 517 595 37,900 780 Climbing Denver Center
11:51AM 41.8372 -104.9908 86° East 513 590 39,000 480 Climbing Denver Center
11:52AM 41.8450 -104.8111 87° East 507 583 39,000  Level Denver Center
11:53AM 41.8539 -104.6044 87° East 502 578 39,000  Level Denver Center
11:54AM 41.8606 -104.4258 87° East 503 579 39,000  Level Denver Center
11:55AM 41.8692 -104.2192 87° East 499 574 39,000  Level Denver Center
11:56AM 41.8708 -104.0419 89° East 499 574 39,000  Level Denver Center
11:57AM 41.8733 -103.8336 89° East 501 577 39,000  Level Denver Center
11:58AM 41.8758 -103.6539 89° East 504 580 39,000  Level Denver Center
11:59AM 41.8781 -103.4142 89° East 506 582 39,000  Level Denver Center
12:00PM 41.8781 -103.2036 90° East 508 585 39,000  Level Denver Center
12:01PM 41.8800 -103.0203 89° East 512 589 39,000  Level Denver Center
12:02PM 41.8808 -102.8094 90° East 510 587 39,000  Level Denver Center
12:03PM 41.8803 -102.6244 90° East 516 594 39,000  Level Denver Center
12:04PM 41.8806 -102.4106 90° East 516 594 39,000  Level Denver Center
12:05PM 41.8806 -102.2272 90° East 516 594 39,000  Level Denver Center
12:06PM 41.8806 -102.0167 90° East 516 594 39,000  Level Denver Center
12:07PM 41.8797 -101.8306 90° East 519 597 39,000  Level Denver Center
12:08PM 41.8786 -101.6139 90° East 519 597 39,000  Level Denver Center
12:09PM 41.8775 -101.4278 90° East 520 598 39,000  Level Denver Center
12:10PM 41.8756 -101.2097 91° East 523 602 39,000  Level Denver Center
12:11PM 41.8733 -101.0242 91° East 519 597 39,000  Level Denver Center
12:13PM 41.8711 -100.8381 91° East 519 597 39,000  Level Denver Center
12:14PM 41.8669 -100.6236 91° East 516 594 39,000  Level Denver Center
12:15PM 41.8642 -100.4394 91° East 515 593 39,000  Level Denver Center
12:16PM 41.8608 -100.2256 91° East 514 592 39,000  Level Denver Center
12:17PM 41.8567 -100.0436 92° East 510 587 39,000  Level Denver Center
12:18PM 41.8522 -99.8292 92° East 513 590 39,000  Level Denver Center
12:19PM 41.8478 -99.6328 92° East 515 593 39,000  Level Denver Center
12:20PM 41.8428 -99.4408 92° East 514 592 39,000  Level Denver Center
12:21PM 41.8375 -99.2475 92° East 514 592 39,000  Level Denver Center
12:22PM 41.8317 -99.0525 92° East 520 598 39,000  Level Denver Center
12:22PM 41.8303 -98.9756 91° East 519 597 39,000  Level Minneapolis Center
12:23PM 41.8233 -98.7806 93° East 521 600 39,000  Level Minneapolis Center
12:24PM 41.8167 -98.5822 93° East 526 605 39,000  Level Minneapolis Center
12:25PM 41.8094 -98.3856 93° East 526 605 39,000  Level Minneapolis Center
12:26PM 41.8033 -98.1903 92° East 524 603 39,000  Level Minneapolis Center
12:27PM 41.7956 -97.9886 93° East 522 601 39,000  Level Minneapolis Center
12:28PM 41.7886 -97.7956 93° East 520 598 39,000  Level Minneapolis Center
12:29PM 41.7800 -97.6028 93° East 520 598 39,000  Level Minneapolis Center
12:30PM 41.7706 -97.3722 93° East 517 595 39,000  Level Minneapolis Center
12:32PM 41.7603 -97.1853 94° East  Level FlightAware Approximate
12:33PM 41.7533 -96.9892 94° East 516 594 39,000  Level Minneapolis Center
12:34PM 41.7439 -96.7978 94° East 515 593 39,000  Level Minneapolis Center
12:35PM 41.7336 -96.6050 94° East 516 594 39,000  Level Minneapolis Center
12:36PM 41.7236 -96.4131 94° East 514 592 39,000  Level Minneapolis Center
12:37PM 41.7133 -96.2217 94° East 513 590 39,000  Level Minneapolis Center
12:38PM 41.7014 -95.9900 94° East 514 592 39,000  Level Minneapolis Center
12:39PM 41.6889 -95.7953 95° East 517 595 39,000  Level Minneapolis Center
12:40PM 41.6772 -95.6011 95° East 519 597 39,000  Level Minneapolis Center
12:41PM 41.6667 -95.4097 94° East 516 594 39,000  Level Minneapolis Center
12:42PM 41.6558 -95.2164 94° East 520 598 39,000  Level Minneapolis Center
12:43PM 41.6431 -95.0231 95° East 519 597 39,000  Level Minneapolis Center
12:44PM 41.6283 -94.8267 96° East 530 610 39,000  Level Minneapolis Center
12:45PM 41.6147 -94.6342 95° East 523 602 39,000  Level Minneapolis Center
12:46PM 41.5997 -94.4025 95° East 521 600 39,000  Level Minneapolis Center
12:47PM 41.5853 -94.2108 96° East 519 597 39,000  Level Minneapolis Center
12:48PM 41.5722 -94.0364 96° East 518 596 39,000  Level Minneapolis Center
12:49PM 41.5583 -93.8472 96° East 516 594 39,000  Level Minneapolis Center
12:50PM 41.5403 -93.6217 96° East 513 590 39,000  Level Minneapolis Center
12:51PM 41.5278 -93.4306 95° East 517 595 39,000  Level Minneapolis Center
12:52PM 41.5122 -93.2411 96° East 518 596 39,000  Level Minneapolis Center
12:53PM 41.4975 -93.0536 96° East 512 589 39,000  Level Minneapolis Center
12:54PM 41.4814 -92.8653 96° East 513 590 39,000  Level Minneapolis Center
12:55PM 41.4664 -92.6778 96° East 511 588 39,000  Level Minneapolis Center
12:56PM 41.4553 -92.5658 98° East 508 585 39,000  Level Chicago Center
12:57PM 41.4400 -92.3789 96° East 509 586 39,000  Level Chicago Center
12:58PM 41.4222 -92.1756 97° East 507 583 39,000  Level Chicago Center
12:59PM 41.4053 -91.9925 97° East 505 581 39,000  Level Chicago Center
01:00PM 41.3886 -91.8119 97° East 500 575 39,000  Level Chicago Center
01:01PM 41.3719 -91.6297 97° East 502 578 39,000  Level Chicago Center
01:02PM 41.3514 -91.4097 97° East 503 579 39,000  Level Chicago Center
01:03PM 41.3364 -91.2489 97° East 504 580 39,000  Level Chicago Center
01:04PM 41.3128 -91.0289 98° East 502 578 39,000  Level Chicago Center
01:05PM 41.2944 -90.8431 97° East 506 582 39,000  Level Chicago Center
01:06PM 41.2753 -90.6581 98° East 505 581 39,000  Level Chicago Center
01:07PM 41.2567 -90.4728 98° East 505 581 39,000  Level Chicago Center
01:08PM 41.2367 -90.2878 98° East 505 581 39,000  Level Chicago Center
01:09PM 41.2169 -90.1031 98° East 503 579 39,000  Level Chicago Center
01:10PM 41.1964 -89.9183 98° East 502 578 39,000  Level Chicago Center
01:11PM 41.1722 -89.6967 98° East 501 577 39,000  Level Chicago Center
01:12PM 41.1617 -89.5114 94° East 510 587 39,000  Level Chicago Center
01:13PM 41.1639 -89.3244 89° East 508 585 39,000  Level Chicago Center
01:14PM 41.1650 -89.1231 90° East 507 583 39,000  Level Chicago Center
01:15PM 41.1675 -88.9367 89° East 508 585 39,000  Level Chicago Center
01:16PM 41.1653 -88.7519 91° East 506 582 39,000  Level Chicago Center
01:17PM 41.1406 -88.5722 100° East 498 573 39,000  Level Chicago Center
01:18PM 41.1158 -88.3933 100° East 500 575 39,000  Level Chicago Center
01:20PM 41.0867 -88.1800 100° East 499 574 39,000  Level Chicago Center
01:21PM 41.0617 -88.0006 100° East 502 578 39,000  Level Chicago Center
01:22PM 41.0353 -87.8200 101° East 505 581 39,000  Level Chicago Center
01:23PM 41.0103 -87.6397 100° East 506 582 39,000  Level Chicago Center
01:24PM 40.9778 -87.4222 101° East 507 583 39,000  Level Chicago Center
01:25PM 40.9494 -87.2417 102° East 506 582 39,000  Level Chicago Center
01:26PM 40.9228 -87.0594 101° East 508 585 39,000  Level Chicago Center
01:27PM 40.8950 -86.8797 101° East 503 579 39,000  Level Chicago Center
01:28PM 40.8661 -86.6897 101° East 493 567 39,000  Level Chicago Center
01:29PM 40.8392 -86.5147 101° East 490 564 39,000  Level Chicago Center
01:30PM 40.8097 -86.3389 102° East 492 566 39,000  Level Chicago Center
01:31PM 40.7831 -86.1639 101° East 491 565 39,000  Level Chicago Center
01:32PM 40.7489 -85.9519 102° East 496 571 39,000  Level Chicago Center
01:33PM 40.7206 -85.7736 102° East 499 574 39,000  Level Chicago Center
01:34PM 40.6919 -85.5961 102° East 499 574 39,000  Level Chicago Center
01:35PM 40.6567 -85.3903 103° East 511 588 39,000  Level Chicago Center
01:36PM 40.6258 -85.2078 102° East 506 582 39,000  Level Chicago Center
01:37PM 40.5950 -85.0239 102° East 507 583 39,000  Level Chicago Center
01:38PM 40.5650 -84.8417 102° East 506 582 39,000  Level Chicago Center
01:39PM 40.5336 -84.6606 103° East 501 577 39,000  Level Chicago Center
01:40PM 40.5006 -84.4761 103° East 510 587 39,000  Level Chicago Center
01:41PM 40.4700 -84.3003 103° East 501 577 39,000  Level Chicago Center
01:42PM 40.4303 -84.0867 104° East 503 579 39,000  Level Chicago Center
01:43PM 40.3994 -83.9069 103° East 505 581 39,000  Level Chicago Center
01:44PM 40.3656 -83.7275 104° East 508 585 39,000  Level Chicago Center
01:45PM 40.3331 -83.5497 103° East 505 581 39,000 -60 Level Chicago Center
01:47PM 40.2942 -83.3422 104° East 502 578 38,900 -60 Descending Indianapolis Center
01:48PM 40.2608 -83.1619 104° East 501 577 38,900  Level Indianapolis Center
01:49PM 40.2208 -82.9533 104° East 500 575 38,900  Level Indianapolis Center
01:50PM 40.1875 -82.7758 104° East 498 573 38,900  Level Indianapolis Center
01:51PM 40.1522 -82.5967 104° East 501 577 38,900  Level Indianapolis Center
01:52PM 40.1386 -82.4075 95° East 513 590 38,900  Level Indianapolis Center
01:53PM 40.1250 -82.2206 95° East 515 593 38,900  Level Indianapolis Center
01:54PM 40.1111 -82.0331 95° East 514 592 38,900  Level Indianapolis Center
01:56PM 40.0619 -81.6653 100° East 504 580 39,000  Climbing Cleveland Center
01:57PM 40.0322 -81.4858 102° East 504 580 38,900  Descending Cleveland Center
01:58PM 40.0086 -81.3042 100° East 509 586 39,000  Climbing Cleveland Center
01:59PM 39.9825 -81.1222 101° East 504 580 39,000  Level Cleveland Center
02:00PM 39.9561 -80.9433 101° East 504 580 39,000  Level Cleveland Center
02:01PM 39.9294 -80.7672 101° East 504 580 39,000  Level Cleveland Center
02:02PM 39.9025 -80.5886 101° East 504 580 39,000  Level Cleveland Center
02:03PM 39.8753 -80.4072 101° East 504 580 39,000  Level Cleveland Center
02:04PM 39.8478 -80.2289 101° East 504 580 39,000 -780 Level Cleveland Center
02:05PM 39.8178 -80.0453 102° East 504 580 37,500 -2,100 Descending Cleveland Center
02:06PM 39.7897 -79.8697 102° East 504 580 34,900 -2,460 Descending Cleveland Center
02:07PM 39.7636 -79.6972 101° East 504 580 32,600 -2,220 Descending Cleveland Center
02:08PM 39.7372 -79.5436 103° East 499 574 30,500 -1,980 Descending Cleveland Center
02:09PM 39.7069 -79.3542 102° East 480 552 28,500 -1,920 Descending Washington Center
02:10PM 39.6844 -79.2128 102° East 450 518 26,600 -1,800 Descending Washington Center
02:11PM 39.6575 -79.0633 103° East 432 497 25,000 -840 Descending Washington Center
02:12PM 39.6222 -78.9053 106° East 416 479 25,000 -600 Level Washington Center
02:13PM 39.5886 -78.7636 107° East 416 479 23,800 -1,620 Descending Washington Center
02:14PM 39.5589 -78.6225 105° East 416 479 21,800 -1,920 Descending Washington Center
02:15PM 39.5289 -78.4839 106° East 405 466 20,000 -1,860 Descending Washington Center
02:16PM 39.4986 -78.3536 107° East 400 460 18,100 -1,920 Descending Washington Center
02:17PM 39.4703 -78.2261 106° East 379 436 16,200 -1,620 Descending Washington Center
02:18PM 39.4417 -78.1014 107° East 374 430 14,900 -660 Descending Washington Center
02:19PM 39.4342 -77.9642 94° East 362 417 14,900  Level Washington Center
02:20PM 39.4367 -77.8300 89° East 368 423 14,900 -60 Level Washington Center
02:21PM 39.4411 -77.6983 87° East 368 423 14,800 -900 Descending Washington Center
02:22PM 39.4411 -77.5667 90° East 363 418 13,100 -1,620 Descending Washington Center
02:23PM 39.4433 -77.4350 89° East 363 418 11,600 -1,020 Descending Washington Center
02:24PM 39.4514 -77.3142 85° East 358 412 11,100 -780 Descending Washington Center
02:25PM 39.4667 -77.2000 80° East 333 383 10,100 -1,500 Descending Potomac TRACON
02:26PM 39.4667 -77.0833 90° East 325 374 8,200 -1,740 Descending Potomac TRACON
02:27PM 39.4833 -76.9667 79° East 312 359 6,600 -1,740 Descending Potomac TRACON
02:28PM 39.4667 -76.8667 102° East 287 330 4,700 -1,320 Descending Potomac TRACON
02:29PM 39.4167 -76.8000 134° Southeast 241 277 4,000 -780 Descending Potomac TRACON
02:30PM 39.3667 -76.8333 207° Southwest 221 254 3,200 -540 Descending Potomac TRACON
02:31PM 39.3167 -76.8667 207° Southwest 224 258 3,000 -120 Descending Potomac TRACON
02:32PM 39.2500 -76.9000 201° Southwest 222 255 3,000 -300 Level Potomac TRACON
02:33PM 39.2000 -76.8833 166° South 211 243 2,400 -540 Descending Potomac TRACON
02:34PM 39.1833 -76.8333 113° Southeast 192 221 2,000 -540 Descending Potomac TRACON
02:35PM 39.1833 -76.7667 90° East 149 171 1,400 -660 Descending Potomac TRACON
02:36PM 39.1833 -76.7167 90° East 142 163 700 -720 Descending Potomac TRACON
02:38PM 39.1667 -76.6667 142° Southeast  Level FlightAware Approximate
02:45PM 39.1754 -76.6683 142° Southeast  Level Estimated
02:46PM 39.1754 -76.6683 142° Southeast  Level Estimated